sensor_id;sensor_type;location;lat;lon;timestamp;temperature;humidity
17726;DHT22;8983;53.156;17.960;2023-03-31T00:01:32;9.70;99.90
17726;DHT22;8983;53.156;17.960;2023-03-31T00:04:04;9.70;99.90
17726;DHT22;8983;53.156;17.960;2023-03-31T00:06:36;9.70;99.90
17726;DHT22;8983;53.156;17.960;2023-03-31T00:09:05;9.70;99.90
17726;DHT22;8983;53.156;17.960;2023-03-31T00:11:37;9.70;99.90
17726;DHT22;8983;53.156;17.960;2023-03-31T00:14:06;9.70;99.90
17726;DHT22;8983;53.156;17.960;2023-03-31T00:16:34;9.70;99.90
17726;DHT22;8983;53.156;17.960;2023-03-31T00:19:05;9.70;99.90
17726;DHT22;8983;53.156;17.960;2023-03-31T00:21:35;9.70;99.90
17726;DHT22;8983;53.156;17.960;2023-03-31T00:24:05;9.70;99.90
17726;DHT22;8983;53.156;17.960;2023-03-31T00:26:34;9.70;99.90
17726;DHT22;8983;53.156;17.960;2023-03-31T00:29:03;9.70;99.90
17726;DHT22;8983;53.156;17.960;2023-03-31T00:31:32;9.70;99.90
17726;DHT22;8983;53.156;17.960;2023-03-31T00:34:01;9.70;99.90
17726;DHT22;8983;53.156;17.960;2023-03-31T00:36:30;9.80;99.90
17726;DHT22;8983;53.156;17.960;2023-03-31T00:39:04;9.70;99.90
17726;DHT22;8983;53.156;17.960;2023-03-31T00:41:35;9.80;99.90
17726;DHT22;8983;53.156;17.960;2023-03-31T00:44:10;9.70;99.90
17726;DHT22;8983;53.156;17.960;2023-03-31T00:46:44;9.80;99.90
17726;DHT22;8983;53.156;17.960;2023-03-31T00:49:19;9.80;99.90
17726;DHT22;8983;53.156;17.960;2023-03-31T00:51:51;9.80;99.90
17726;DHT22;8983;53.156;17.960;2023-03-31T00:54:22;9.80;99.90
17726;DHT22;8983;53.156;17.960;2023-03-31T00:56:53;9.80;99.90
17726;DHT22;8983;53.156;17.960;2023-03-31T00:59:26;9.80;99.90
17726;DHT22;8983;53.156;17.960;2023-03-31T01:01:56;9.80;99.90
17726;DHT22;8983;53.156;17.960;2023-03-31T01:04:31;9.90;99.90
17726;DHT22;8983;53.156;17.960;2023-03-31T01:07:06;9.90;99.90
17726;DHT22;8983;53.156;17.960;2023-03-31T01:09:36;9.90;99.90
17726;DHT22;8983;53.156;17.960;2023-03-31T01:12:07;9.90;99.90
17726;DHT22;8983;53.156;17.960;2023-03-31T01:14:35;9.90;99.90
17726;DHT22;8983;53.156;17.960;2023-03-31T01:17:04;9.90;99.90
17726;DHT22;8983;53.156;17.960;2023-03-31T01:19:44;9.90;99.90
17726;DHT22;8983;53.156;17.960;2023-03-31T01:22:36;9.90;99.90
17726;DHT22;8983;53.156;17.960;2023-03-31T01:28:20;9.90;99.90
17726;DHT22;8983;53.156;17.960;2023-03-31T01:40:14;9.80;99.90
17726;DHT22;8983;53.156;17.960;2023-03-31T01:42:51;9.70;99.90
17726;DHT22;8983;53.156;17.960;2023-03-31T01:45:35;9.70;99.90
17726;DHT22;8983;53.156;17.960;2023-03-31T01:48:11;9.70;99.90
17726;DHT22;8983;53.156;17.960;2023-03-31T01:50:44;9.70;99.90
17726;DHT22;8983;53.156;17.960;2023-03-31T01:53:17;9.60;99.90
17726;DHT22;8983;53.156;17.960;2023-03-31T01:55:57;9.60;99.90
17726;DHT22;8983;53.156;17.960;2023-03-31T01:58:34;9.60;99.90
17726;DHT22;8983;53.156;17.960;2023-03-31T02:01:11;9.50;99.90
17726;DHT22;8983;53.156;17.960;2023-03-31T02:03:45;9.50;99.90
17726;DHT22;8983;53.156;17.960;2023-03-31T02:06:19;9.40;99.90
17726;DHT22;8983;53.156;17.960;2023-03-31T02:08:53;9.40;99.90
17726;DHT22;8983;53.156;17.960;2023-03-31T02:11:24;9.30;99.90
17726;DHT22;8983;53.156;17.960;2023-03-31T02:13:55;9.30;99.90
17726;DHT22;8983;53.156;17.960;2023-03-31T02:16:29;9.30;99.90
17726;DHT22;8983;53.156;17.960;2023-03-31T02:19:01;9.30;99.90
17726;DHT22;8983;53.156;17.960;2023-03-31T02:21:33;9.20;99.90
17726;DHT22;8983;53.156;17.960;2023-03-31T02:24:04;9.20;99.90
17726;DHT22;8983;53.156;17.960;2023-03-31T02:26:38;9.20;99.90
17726;DHT22;8983;53.156;17.960;2023-03-31T02:29:08;9.10;99.90
17726;DHT22;8983;53.156;17.960;2023-03-31T02:31:42;9.20;99.90
17726;DHT22;8983;53.156;17.960;2023-03-31T02:34:13;9.10;99.90
17726;DHT22;8983;53.156;17.960;2023-03-31T02:36:42;9.00;99.90
17726;DHT22;8983;53.156;17.960;2023-03-31T02:39:13;9.00;99.90
17726;DHT22;8983;53.156;17.960;2023-03-31T02:41:44;8.90;99.90
17726;DHT22;8983;53.156;17.960;2023-03-31T02:44:13;9.00;99.90
17726;DHT22;8983;53.156;17.960;2023-03-31T02:46:42;8.90;99.90
17726;DHT22;8983;53.156;17.960;2023-03-31T02:49:11;8.90;99.90
17726;DHT22;8983;53.156;17.960;2023-03-31T02:51:48;8.90;99.90
17726;DHT22;8983;53.156;17.960;2023-03-31T02:54:46;8.90;99.90
17726;DHT22;8983;53.156;17.960;2023-03-31T02:57:40;8.80;99.90
17726;DHT22;8983;53.156;17.960;2023-03-31T03:00:16;8.80;99.90
17726;DHT22;8983;53.156;17.960;2023-03-31T03:03:00;8.70;99.90
17726;DHT22;8983;53.156;17.960;2023-03-31T03:05:40;8.70;99.90
17726;DHT22;8983;53.156;17.960;2023-03-31T03:08:18;8.70;99.90
17726;DHT22;8983;53.156;17.960;2023-03-31T03:11:00;8.70;99.90
17726;DHT22;8983;53.156;17.960;2023-03-31T03:13:34;8.60;99.90
17726;DHT22;8983;53.156;17.960;2023-03-31T03:16:06;8.60;99.90
17726;DHT22;8983;53.156;17.960;2023-03-31T03:18:36;8.60;99.90
17726;DHT22;8983;53.156;17.960;2023-03-31T03:21:04;8.70;99.90
17726;DHT22;8983;53.156;17.960;2023-03-31T03:23:33;8.60;99.90
17726;DHT22;8983;53.156;17.960;2023-03-31T03:26:00;8.50;99.90
17726;DHT22;8983;53.156;17.960;2023-03-31T03:28:30;8.60;99.90
17726;DHT22;8983;53.156;17.960;2023-03-31T03:30:58;8.70;99.90
17726;DHT22;8983;53.156;17.960;2023-03-31T03:33:26;8.70;99.90
17726;DHT22;8983;53.156;17.960;2023-03-31T03:35:54;8.70;99.90
17726;DHT22;8983;53.156;17.960;2023-03-31T03:38:22;8.70;99.90
17726;DHT22;8983;53.156;17.960;2023-03-31T03:40:52;8.70;99.90
17726;DHT22;8983;53.156;17.960;2023-03-31T03:43:20;8.70;99.90
17726;DHT22;8983;53.156;17.960;2023-03-31T03:45:50;8.70;99.90
17726;DHT22;8983;53.156;17.960;2023-03-31T03:48:18;8.80;99.90
17726;DHT22;8983;53.156;17.960;2023-03-31T03:50:47;8.70;99.90
17726;DHT22;8983;53.156;17.960;2023-03-31T03:53:15;8.70;99.90
17726;DHT22;8983;53.156;17.960;2023-03-31T03:55:43;8.70;99.90
17726;DHT22;8983;53.156;17.960;2023-03-31T03:58:11;8.60;99.90
17726;DHT22;8983;53.156;17.960;2023-03-31T04:00:39;8.60;99.90
17726;DHT22;8983;53.156;17.960;2023-03-31T04:03:08;8.60;99.90
17726;DHT22;8983;53.156;17.960;2023-03-31T04:05:36;8.60;99.90
17726;DHT22;8983;53.156;17.960;2023-03-31T04:08:05;8.60;99.90
17726;DHT22;8983;53.156;17.960;2023-03-31T04:10:34;8.50;99.90
17726;DHT22;8983;53.156;17.960;2023-03-31T04:13:02;8.50;99.90
17726;DHT22;8983;53.156;17.960;2023-03-31T04:15:30;8.50;99.90
17726;DHT22;8983;53.156;17.960;2023-03-31T04:17:58;8.50;99.90
17726;DHT22;8983;53.156;17.960;2023-03-31T04:20:28;8.50;99.90
17726;DHT22;8983;53.156;17.960;2023-03-31T04:22:57;8.50;99.90
17726;DHT22;8983;53.156;17.960;2023-03-31T04:25:25;8.50;99.90
17726;DHT22;8983;53.156;17.960;2023-03-31T04:27:56;8.50;99.90
17726;DHT22;8983;53.156;17.960;2023-03-31T04:30:26;8.50;99.90
17726;DHT22;8983;53.156;17.960;2023-03-31T04:32:58;8.50;99.90
17726;DHT22;8983;53.156;17.960;2023-03-31T04:35:29;8.40;99.90
17726;DHT22;8983;53.156;17.960;2023-03-31T04:38:08;8.50;99.90
17726;DHT22;8983;53.156;17.960;2023-03-31T04:40:36;8.60;99.90
17726;DHT22;8983;53.156;17.960;2023-03-31T04:43:05;8.60;99.90
17726;DHT22;8983;53.156;17.960;2023-03-31T04:45:33;8.60;99.90
17726;DHT22;8983;53.156;17.960;2023-03-31T04:48:01;8.70;99.90
17726;DHT22;8983;53.156;17.960;2023-03-31T04:50:31;8.60;99.90
17726;DHT22;8983;53.156;17.960;2023-03-31T04:52:59;8.70;99.90
17726;DHT22;8983;53.156;17.960;2023-03-31T04:55:27;8.70;99.90
17726;DHT22;8983;53.156;17.960;2023-03-31T04:57:55;8.70;99.90
17726;DHT22;8983;53.156;17.960;2023-03-31T05:00:23;8.70;99.90
17726;DHT22;8983;53.156;17.960;2023-03-31T05:02:52;8.70;99.90
17726;DHT22;8983;53.156;17.960;2023-03-31T05:05:20;8.80;99.90
17726;DHT22;8983;53.156;17.960;2023-03-31T05:07:50;8.80;99.90
17726;DHT22;8983;53.156;17.960;2023-03-31T05:10:18;8.80;99.90
17726;DHT22;8983;53.156;17.960;2023-03-31T05:12:46;8.80;99.90
17726;DHT22;8983;53.156;17.960;2023-03-31T05:15:15;8.80;99.90
17726;DHT22;8983;53.156;17.960;2023-03-31T05:17:43;8.80;99.90
17726;DHT22;8983;53.156;17.960;2023-03-31T05:20:12;8.80;99.90
17726;DHT22;8983;53.156;17.960;2023-03-31T05:22:40;8.90;99.90
17726;DHT22;8983;53.156;17.960;2023-03-31T05:25:12;8.90;99.90
17726;DHT22;8983;53.156;17.960;2023-03-31T05:27:45;8.90;99.90
17726;DHT22;8983;53.156;17.960;2023-03-31T05:30:14;8.90;99.90
17726;DHT22;8983;53.156;17.960;2023-03-31T05:32:42;8.90;99.90
17726;DHT22;8983;53.156;17.960;2023-03-31T05:35:10;9.00;99.90
17726;DHT22;8983;53.156;17.960;2023-03-31T05:37:38;8.90;99.90
17726;DHT22;8983;53.156;17.960;2023-03-31T05:40:08;9.00;99.90
17726;DHT22;8983;53.156;17.960;2023-03-31T05:42:38;9.00;99.90
17726;DHT22;8983;53.156;17.960;2023-03-31T05:45:08;9.10;99.90
17726;DHT22;8983;53.156;17.960;2023-03-31T05:47:36;9.10;99.90
17726;DHT22;8983;53.156;17.960;2023-03-31T05:50:04;9.10;99.90
17726;DHT22;8983;53.156;17.960;2023-03-31T05:52:35;9.10;99.90
17726;DHT22;8983;53.156;17.960;2023-03-31T05:55:03;9.20;99.90
17726;DHT22;8983;53.156;17.960;2023-03-31T05:57:31;9.20;99.90
17726;DHT22;8983;53.156;17.960;2023-03-31T06:00:01;9.20;99.90
17726;DHT22;8983;53.156;17.960;2023-03-31T06:02:29;9.20;99.90
17726;DHT22;8983;53.156;17.960;2023-03-31T06:04:57;9.30;99.90
17726;DHT22;8983;53.156;17.960;2023-03-31T06:07:25;9.30;99.90
17726;DHT22;8983;53.156;17.960;2023-03-31T06:09:54;9.30;99.90
17726;DHT22;8983;53.156;17.960;2023-03-31T06:12:22;9.40;99.90
17726;DHT22;8983;53.156;17.960;2023-03-31T06:14:50;9.30;99.90
17726;DHT22;8983;53.156;17.960;2023-03-31T06:17:19;9.40;99.90
17726;DHT22;8983;53.156;17.960;2023-03-31T06:19:47;9.40;99.90
17726;DHT22;8983;53.156;17.960;2023-03-31T06:22:15;9.50;99.90
17726;DHT22;8983;53.156;17.960;2023-03-31T06:24:43;9.50;99.90
17726;DHT22;8983;53.156;17.960;2023-03-31T06:27:11;9.50;99.90
17726;DHT22;8983;53.156;17.960;2023-03-31T06:29:40;9.50;99.90
17726;DHT22;8983;53.156;17.960;2023-03-31T06:32:08;9.70;99.90
17726;DHT22;8983;53.156;17.960;2023-03-31T06:34:37;9.60;99.90
17726;DHT22;8983;53.156;17.960;2023-03-31T06:37:05;9.70;99.90
17726;DHT22;8983;53.156;17.960;2023-03-31T06:39:33;9.70;99.90
17726;DHT22;8983;53.156;17.960;2023-03-31T06:42:01;9.70;99.90
17726;DHT22;8983;53.156;17.960;2023-03-31T06:44:29;9.80;99.90
17726;DHT22;8983;53.156;17.960;2023-03-31T06:46:57;9.90;99.90
17726;DHT22;8983;53.156;17.960;2023-03-31T06:49:25;9.90;99.90
17726;DHT22;8983;53.156;17.960;2023-03-31T06:51:55;9.90;99.90
17726;DHT22;8983;53.156;17.960;2023-03-31T06:54:23;10.00;99.90
17726;DHT22;8983;53.156;17.960;2023-03-31T06:56:51;10.00;99.90
17726;DHT22;8983;53.156;17.960;2023-03-31T06:59:19;10.10;99.90
17726;DHT22;8983;53.156;17.960;2023-03-31T07:01:47;10.10;99.90
17726;DHT22;8983;53.156;17.960;2023-03-31T07:04:16;10.10;99.90
17726;DHT22;8983;53.156;17.960;2023-03-31T07:06:44;10.20;99.90
17726;DHT22;8983;53.156;17.960;2023-03-31T07:09:13;10.30;99.90
17726;DHT22;8983;53.156;17.960;2023-03-31T07:11:41;10.30;99.90
17726;DHT22;8983;53.156;17.960;2023-03-31T07:14:09;10.30;99.90
17726;DHT22;8983;53.156;17.960;2023-03-31T07:16:37;10.40;99.90
17726;DHT22;8983;53.156;17.960;2023-03-31T07:19:06;10.40;99.90
17726;DHT22;8983;53.156;17.960;2023-03-31T07:21:36;10.50;99.90
17726;DHT22;8983;53.156;17.960;2023-03-31T07:24:04;10.50;99.90
17726;DHT22;8983;53.156;17.960;2023-03-31T07:26:34;10.60;99.90
17726;DHT22;8983;53.156;17.960;2023-03-31T07:29:02;10.60;99.90
17726;DHT22;8983;53.156;17.960;2023-03-31T07:31:30;10.70;99.90
17726;DHT22;8983;53.156;17.960;2023-03-31T07:33:59;10.70;99.90
17726;DHT22;8983;53.156;17.960;2023-03-31T07:36:28;10.70;99.90
17726;DHT22;8983;53.156;17.960;2023-03-31T07:38:56;10.70;99.90
17726;DHT22;8983;53.156;17.960;2023-03-31T07:41:24;10.80;99.90
17726;DHT22;8983;53.156;17.960;2023-03-31T07:43:54;10.80;99.90
17726;DHT22;8983;53.156;17.960;2023-03-31T07:46:24;10.80;99.90
17726;DHT22;8983;53.156;17.960;2023-03-31T07:48:53;10.90;99.90
17726;DHT22;8983;53.156;17.960;2023-03-31T07:51:24;10.90;99.90
17726;DHT22;8983;53.156;17.960;2023-03-31T07:53:52;11.00;99.90
17726;DHT22;8983;53.156;17.960;2023-03-31T07:56:22;11.10;99.90
17726;DHT22;8983;53.156;17.960;2023-03-31T07:58:51;11.10;99.90
17726;DHT22;8983;53.156;17.960;2023-03-31T08:01:24;11.10;99.90
17726;DHT22;8983;53.156;17.960;2023-03-31T08:03:55;11.20;99.90
17726;DHT22;8983;53.156;17.960;2023-03-31T08:06:25;11.20;99.90
17726;DHT22;8983;53.156;17.960;2023-03-31T08:08:53;11.30;99.90
17726;DHT22;8983;53.156;17.960;2023-03-31T08:11:21;11.40;99.90
17726;DHT22;8983;53.156;17.960;2023-03-31T08:13:50;11.40;99.90
17726;DHT22;8983;53.156;17.960;2023-03-31T08:16:18;11.50;99.90
17726;DHT22;8983;53.156;17.960;2023-03-31T08:18:48;11.50;99.90
17726;DHT22;8983;53.156;17.960;2023-03-31T08:21:17;11.50;99.90
17726;DHT22;8983;53.156;17.960;2023-03-31T08:23:51;11.60;99.90
17726;DHT22;8983;53.156;17.960;2023-03-31T08:26:19;11.60;99.90
17726;DHT22;8983;53.156;17.960;2023-03-31T08:28:50;11.60;99.90
17726;DHT22;8983;53.156;17.960;2023-03-31T08:31:20;11.70;99.90
17726;DHT22;8983;53.156;17.960;2023-03-31T08:33:54;11.70;99.90
17726;DHT22;8983;53.156;17.960;2023-03-31T08:36:23;11.80;99.90
17726;DHT22;8983;53.156;17.960;2023-03-31T08:38:51;11.90;99.90
17726;DHT22;8983;53.156;17.960;2023-03-31T08:41:31;11.90;99.90
17726;DHT22;8983;53.156;17.960;2023-03-31T08:44:04;12.00;99.90
17726;DHT22;8983;53.156;17.960;2023-03-31T08:46:34;12.00;99.90
17726;DHT22;8983;53.156;17.960;2023-03-31T08:49:04;12.00;99.90
17726;DHT22;8983;53.156;17.960;2023-03-31T08:51:37;12.00;99.90
17726;DHT22;8983;53.156;17.960;2023-03-31T08:54:13;12.00;99.90
17726;DHT22;8983;53.156;17.960;2023-03-31T08:56:46;12.00;99.90
17726;DHT22;8983;53.156;17.960;2023-03-31T08:59:21;12.10;99.90
17726;DHT22;8983;53.156;17.960;2023-03-31T09:01:58;12.10;99.90
17726;DHT22;8983;53.156;17.960;2023-03-31T09:04:49;12.20;99.90
17726;DHT22;8983;53.156;17.960;2023-03-31T09:07:26;12.20;99.90
17726;DHT22;8983;53.156;17.960;2023-03-31T09:10:04;12.20;99.90
17726;DHT22;8983;53.156;17.960;2023-03-31T09:12:44;12.30;99.90
17726;DHT22;8983;53.156;17.960;2023-03-31T09:15:19;12.40;99.90
17726;DHT22;8983;53.156;17.960;2023-03-31T09:17:51;12.40;99.90
17726;DHT22;8983;53.156;17.960;2023-03-31T09:20:26;12.60;99.90
17726;DHT22;8983;53.156;17.960;2023-03-31T09:22:59;12.70;99.90
17726;DHT22;8983;53.156;17.960;2023-03-31T09:25:32;12.80;99.90
17726;DHT22;8983;53.156;17.960;2023-03-31T09:28:19;12.80;99.90
17726;DHT22;8983;53.156;17.960;2023-03-31T09:30:48;12.80;99.90
17726;DHT22;8983;53.156;17.960;2023-03-31T09:33:18;12.80;99.90
17726;DHT22;8983;53.156;17.960;2023-03-31T09:35:48;12.90;99.90
17726;DHT22;8983;53.156;17.960;2023-03-31T09:38:18;12.90;99.90
17726;DHT22;8983;53.156;17.960;2023-03-31T09:40:46;13.00;99.90
17726;DHT22;8983;53.156;17.960;2023-03-31T09:43:18;13.00;99.90
17726;DHT22;8983;53.156;17.960;2023-03-31T09:45:48;13.10;99.90
17726;DHT22;8983;53.156;17.960;2023-03-31T09:48:35;13.20;99.90
17726;DHT22;8983;53.156;17.960;2023-03-31T09:51:07;13.30;99.90
17726;DHT22;8983;53.156;17.960;2023-03-31T09:53:46;13.40;99.90
17726;DHT22;8983;53.156;17.960;2023-03-31T09:56:32;13.40;99.90
17726;DHT22;8983;53.156;17.960;2023-03-31T09:59:01;13.40;99.90
17726;DHT22;8983;53.156;17.960;2023-03-31T10:01:29;13.30;99.90
17726;DHT22;8983;53.156;17.960;2023-03-31T10:03:58;13.60;99.90
17726;DHT22;8983;53.156;17.960;2023-03-31T10:06:30;13.90;99.90
17726;DHT22;8983;53.156;17.960;2023-03-31T10:09:00;14.10;99.90
17726;DHT22;8983;53.156;17.960;2023-03-31T10:11:29;14.20;99.90
17726;DHT22;8983;53.156;17.960;2023-03-31T10:14:00;14.10;99.90
17726;DHT22;8983;53.156;17.960;2023-03-31T10:16:31;14.20;99.90
17726;DHT22;8983;53.156;17.960;2023-03-31T10:19:17;14.10;99.90
17726;DHT22;8983;53.156;17.960;2023-03-31T10:21:54;14.00;99.90
17726;DHT22;8983;53.156;17.960;2023-03-31T10:24:23;14.00;99.90
17726;DHT22;8983;53.156;17.960;2023-03-31T10:26:54;14.00;99.90
17726;DHT22;8983;53.156;17.960;2023-03-31T10:29:28;14.20;99.90
17726;DHT22;8983;53.156;17.960;2023-03-31T10:32:02;14.30;99.90
17726;DHT22;8983;53.156;17.960;2023-03-31T10:34:31;14.50;99.90
17726;DHT22;8983;53.156;17.960;2023-03-31T10:37:03;14.60;99.90
17726;DHT22;8983;53.156;17.960;2023-03-31T10:39:32;14.50;99.90
17726;DHT22;8983;53.156;17.960;2023-03-31T10:42:01;14.40;99.90
17726;DHT22;8983;53.156;17.960;2023-03-31T10:44:31;14.20;99.90
17726;DHT22;8983;53.156;17.960;2023-03-31T10:47:05;14.10;99.90
17726;DHT22;8983;53.156;17.960;2023-03-31T10:49:44;14.00;99.90
17726;DHT22;8983;53.156;17.960;2023-03-31T10:52:18;14.00;99.90
17726;DHT22;8983;53.156;17.960;2023-03-31T10:54:48;13.90;99.90
17726;DHT22;8983;53.156;17.960;2023-03-31T10:57:17;14.00;99.90
17726;DHT22;8983;53.156;17.960;2023-03-31T11:00:02;14.10;99.90
17726;DHT22;8983;53.156;17.960;2023-03-31T11:05:39;14.30;99.90
17726;DHT22;8983;53.156;17.960;2023-03-31T11:08:25;14.40;99.90
17726;DHT22;8983;53.156;17.960;2023-03-31T11:13:57;14.60;99.90
17726;DHT22;8983;53.156;17.960;2023-03-31T11:16:32;14.70;99.90
17726;DHT22;8983;53.156;17.960;2023-03-31T11:19:14;14.80;99.90
17726;DHT22;8983;53.156;17.960;2023-03-31T11:21:53;14.90;99.90
17726;DHT22;8983;53.156;17.960;2023-03-31T11:24:37;15.00;99.90
17726;DHT22;8983;53.156;17.960;2023-03-31T11:27:24;15.20;99.90
17726;DHT22;8983;53.156;17.960;2023-03-31T11:29:58;15.30;99.90
17726;DHT22;8983;53.156;17.960;2023-03-31T11:32:37;15.30;99.90
17726;DHT22;8983;53.156;17.960;2023-03-31T11:35:20;15.40;99.90
17726;DHT22;8983;53.156;17.960;2023-03-31T11:38:06;15.50;99.90
17726;DHT22;8983;53.156;17.960;2023-03-31T11:40:49;15.50;99.90
17726;DHT22;8983;53.156;17.960;2023-03-31T11:43:23;15.60;99.90
17726;DHT22;8983;53.156;17.960;2023-03-31T11:45:58;15.70;99.90
17726;DHT22;8983;53.156;17.960;2023-03-31T11:48:35;15.60;99.90
17726;DHT22;8983;53.156;17.960;2023-03-31T11:51:10;15.70;99.90
17726;DHT22;8983;53.156;17.960;2023-03-31T11:53:42;15.70;99.90
17726;DHT22;8983;53.156;17.960;2023-03-31T11:56:14;15.80;99.90
17726;DHT22;8983;53.156;17.960;2023-03-31T11:58:46;15.70;99.90
17726;DHT22;8983;53.156;17.960;2023-03-31T12:01:18;15.70;99.90
17726;DHT22;8983;53.156;17.960;2023-03-31T12:03:54;15.60;99.90
17726;DHT22;8983;53.156;17.960;2023-03-31T12:06:27;15.50;99.90
17726;DHT22;8983;53.156;17.960;2023-03-31T12:09:11;15.40;99.90
17726;DHT22;8983;53.156;17.960;2023-03-31T12:11:48;15.40;99.90
17726;DHT22;8983;53.156;17.960;2023-03-31T12:14:24;15.50;99.90
17726;DHT22;8983;53.156;17.960;2023-03-31T12:16:57;15.70;99.90
17726;DHT22;8983;53.156;17.960;2023-03-31T12:19:31;15.80;99.90
17726;DHT22;8983;53.156;17.960;2023-03-31T12:22:07;16.00;99.90
17726;DHT22;8983;53.156;17.960;2023-03-31T12:24:37;16.00;99.90
17726;DHT22;8983;53.156;17.960;2023-03-31T12:27:11;16.00;99.90
17726;DHT22;8983;53.156;17.960;2023-03-31T12:29:43;16.00;99.90
17726;DHT22;8983;53.156;17.960;2023-03-31T12:32:15;15.90;99.90
17726;DHT22;8983;53.156;17.960;2023-03-31T12:34:46;15.80;99.90
17726;DHT22;8983;53.156;17.960;2023-03-31T12:37:44;15.70;99.90
17726;DHT22;8983;53.156;17.960;2023-03-31T12:40:22;15.60;99.90
17726;DHT22;8983;53.156;17.960;2023-03-31T12:43:03;15.60;99.90
17726;DHT22;8983;53.156;17.960;2023-03-31T12:45:37;15.70;99.90
17726;DHT22;8983;53.156;17.960;2023-03-31T12:48:28;15.70;99.90
17726;DHT22;8983;53.156;17.960;2023-03-31T12:51:11;15.80;99.90
17726;DHT22;8983;53.156;17.960;2023-03-31T12:54:01;15.90;99.90
17726;DHT22;8983;53.156;17.960;2023-03-31T12:59:36;16.00;99.90
17726;DHT22;8983;53.156;17.960;2023-03-31T13:02:21;16.00;99.90
17726;DHT22;8983;53.156;17.960;2023-03-31T13:04:49;16.00;99.90
17726;DHT22;8983;53.156;17.960;2023-03-31T13:07:36;16.00;99.90
17726;DHT22;8983;53.156;17.960;2023-03-31T13:10:25;15.90;99.90
17726;DHT22;8983;53.156;17.960;2023-03-31T13:13:01;15.90;99.90
17726;DHT22;8983;53.156;17.960;2023-03-31T13:15:32;15.90;99.90
17726;DHT22;8983;53.156;17.960;2023-03-31T13:18:02;15.90;99.90
17726;DHT22;8983;53.156;17.960;2023-03-31T13:20:35;16.00;99.90
17726;DHT22;8983;53.156;17.960;2023-03-31T13:23:13;16.00;99.90
17726;DHT22;8983;53.156;17.960;2023-03-31T13:25:44;16.00;99.90
17726;DHT22;8983;53.156;17.960;2023-03-31T13:28:30;16.00;99.90
17726;DHT22;8983;53.156;17.960;2023-03-31T13:31:01;15.90;99.90
17726;DHT22;8983;53.156;17.960;2023-03-31T13:33:46;16.10;99.90
17726;DHT22;8983;53.156;17.960;2023-03-31T13:36:29;16.00;99.90
17726;DHT22;8983;53.156;17.960;2023-03-31T13:39:15;15.90;99.90
17726;DHT22;8983;53.156;17.960;2023-03-31T13:41:56;15.80;99.90
17726;DHT22;8983;53.156;17.960;2023-03-31T13:45:02;15.70;99.90
17726;DHT22;8983;53.156;17.960;2023-03-31T13:47:55;15.80;99.90
17726;DHT22;8983;53.156;17.960;2023-03-31T13:50:43;15.80;99.90
17726;DHT22;8983;53.156;17.960;2023-03-31T13:53:27;15.90;99.90
17726;DHT22;8983;53.156;17.960;2023-03-31T13:56:22;16.10;99.90
17726;DHT22;8983;53.156;17.960;2023-03-31T13:59:24;16.30;99.90
17726;DHT22;8983;53.156;17.960;2023-03-31T14:02:10;16.40;99.90
17726;DHT22;8983;53.156;17.960;2023-03-31T14:07:46;16.80;99.90
17726;DHT22;8983;53.156;17.960;2023-03-31T14:10:24;17.00;99.90
17726;DHT22;8983;53.156;17.960;2023-03-31T14:13:04;17.10;99.90
17726;DHT22;8983;53.156;17.960;2023-03-31T14:15:35;17.20;99.90
17726;DHT22;8983;53.156;17.960;2023-03-31T14:18:04;17.30;99.90
17726;DHT22;8983;53.156;17.960;2023-03-31T14:23:38;17.50;99.90
17726;DHT22;8983;53.156;17.960;2023-03-31T14:26:15;17.50;99.90
17726;DHT22;8983;53.156;17.960;2023-03-31T14:28:57;17.40;99.90
17726;DHT22;8983;53.156;17.960;2023-03-31T14:31:30;17.30;99.90
17726;DHT22;8983;53.156;17.960;2023-03-31T14:34:27;17.30;99.90
17726;DHT22;8983;53.156;17.960;2023-03-31T14:37:01;17.10;99.90
17726;DHT22;8983;53.156;17.960;2023-03-31T14:39:43;17.00;99.90
17726;DHT22;8983;53.156;17.960;2023-03-31T14:42:14;16.80;99.90
17726;DHT22;8983;53.156;17.960;2023-03-31T14:44:43;16.70;99.90
17726;DHT22;8983;53.156;17.960;2023-03-31T14:47:15;16.60;99.90
17726;DHT22;8983;53.156;17.960;2023-03-31T14:49:47;16.50;99.90
17726;DHT22;8983;53.156;17.960;2023-03-31T14:52:28;16.40;99.90
17726;DHT22;8983;53.156;17.960;2023-03-31T14:54:58;16.30;99.90
17726;DHT22;8983;53.156;17.960;2023-03-31T14:57:29;16.10;99.90
17726;DHT22;8983;53.156;17.960;2023-03-31T15:00:02;15.90;99.90
17726;DHT22;8983;53.156;17.960;2023-03-31T15:02:33;15.60;99.90
17726;DHT22;8983;53.156;17.960;2023-03-31T15:05:03;15.40;99.90
17726;DHT22;8983;53.156;17.960;2023-03-31T15:07:34;15.00;99.90
17726;DHT22;8983;53.156;17.960;2023-03-31T15:10:04;14.60;99.90
17726;DHT22;8983;53.156;17.960;2023-03-31T15:12:33;14.30;99.90
17726;DHT22;8983;53.156;17.960;2023-03-31T15:15:05;14.10;99.90
17726;DHT22;8983;53.156;17.960;2023-03-31T15:17:36;13.90;99.90
17726;DHT22;8983;53.156;17.960;2023-03-31T15:20:24;13.80;99.90
17726;DHT22;8983;53.156;17.960;2023-03-31T15:22:54;13.80;99.90
17726;DHT22;8983;53.156;17.960;2023-03-31T15:25:26;13.70;99.90
17726;DHT22;8983;53.156;17.960;2023-03-31T15:27:58;13.70;99.90
17726;DHT22;8983;53.156;17.960;2023-03-31T15:30:28;13.70;99.90
17726;DHT22;8983;53.156;17.960;2023-03-31T15:32:56;13.70;99.90
17726;DHT22;8983;53.156;17.960;2023-03-31T15:35:45;13.80;99.90
17726;DHT22;8983;53.156;17.960;2023-03-31T15:38:14;13.70;99.90
17726;DHT22;8983;53.156;17.960;2023-03-31T15:40:50;13.70;99.90
17726;DHT22;8983;53.156;17.960;2023-03-31T15:43:27;13.60;99.90
17726;DHT22;8983;53.156;17.960;2023-03-31T15:45:56;13.60;99.90
17726;DHT22;8983;53.156;17.960;2023-03-31T15:48:28;13.70;99.90
17726;DHT22;8983;53.156;17.960;2023-03-31T15:51:00;13.70;99.90
17726;DHT22;8983;53.156;17.960;2023-03-31T15:53:35;13.70;99.90
17726;DHT22;8983;53.156;17.960;2023-03-31T15:56:05;13.80;99.90
17726;DHT22;8983;53.156;17.960;2023-03-31T15:58:53;13.80;99.90
17726;DHT22;8983;53.156;17.960;2023-03-31T16:01:23;13.80;99.90
17726;DHT22;8983;53.156;17.960;2023-03-31T16:03:55;13.80;99.90
17726;DHT22;8983;53.156;17.960;2023-03-31T16:06:31;13.90;99.90
17726;DHT22;8983;53.156;17.960;2023-03-31T16:09:02;13.90;99.90
17726;DHT22;8983;53.156;17.960;2023-03-31T16:11:39;13.90;99.90
17726;DHT22;8983;53.156;17.960;2023-03-31T16:14:13;13.90;99.90
17726;DHT22;8983;53.156;17.960;2023-03-31T16:16:48;13.80;99.90
17726;DHT22;8983;53.156;17.960;2023-03-31T16:19:19;13.80;99.90
17726;DHT22;8983;53.156;17.960;2023-03-31T16:21:50;13.80;99.90
17726;DHT22;8983;53.156;17.960;2023-03-31T16:24:28;13.70;99.90
17726;DHT22;8983;53.156;17.960;2023-03-31T16:26:59;13.70;99.90
17726;DHT22;8983;53.156;17.960;2023-03-31T16:29:33;13.70;99.90
17726;DHT22;8983;53.156;17.960;2023-03-31T16:32:10;13.70;99.90
17726;DHT22;8983;53.156;17.960;2023-03-31T16:34:53;13.60;99.90
17726;DHT22;8983;53.156;17.960;2023-03-31T16:37:22;13.60;99.90
17726;DHT22;8983;53.156;17.960;2023-03-31T16:39:50;13.60;99.90
17726;DHT22;8983;53.156;17.960;2023-03-31T16:42:20;13.50;99.90